sensor_id;sensor_type;location;lat;lon;timestamp;temperature;humidity
23729;DHT22;12045;60.214;24.724;2022-07-29T00:00:32;13.00;99.90
23729;DHT22;12045;60.214;24.724;2022-07-29T00:02:59;12.90;99.90
23729;DHT22;12045;60.214;24.724;2022-07-29T00:05:27;12.90;99.90
23729;DHT22;12045;60.214;24.724;2022-07-29T00:07:55;12.90;99.90
23729;DHT22;12045;60.214;24.724;2022-07-29T00:10:22;12.80;99.90
23729;DHT22;12045;60.214;24.724;2022-07-29T00:12:50;12.70;99.90
23729;DHT22;12045;60.214;24.724;2022-07-29T00:15:18;12.70;99.90
23729;DHT22;12045;60.214;24.724;2022-07-29T00:17:46;12.60;99.90
23729;DHT22;12045;60.214;24.724;2022-07-29T00:20:13;12.60;99.90
23729;DHT22;12045;60.214;24.724;2022-07-29T00:22:41;12.70;99.90
23729;DHT22;12045;60.214;24.724;2022-07-29T00:25:12;12.60;99.90
23729;DHT22;12045;60.214;24.724;2022-07-29T00:27:40;12.60;99.90
23729;DHT22;12045;60.214;24.724;2022-07-29T00:30:08;12.70;99.90
23729;DHT22;12045;60.214;24.724;2022-07-29T00:32:36;12.60;99.90
23729;DHT22;12045;60.214;24.724;2022-07-29T00:35:04;12.60;99.90
23729;DHT22;12045;60.214;24.724;2022-07-29T00:37:51;12.60;99.90
23729;DHT22;12045;60.214;24.724;2022-07-29T00:40:19;12.60;99.90
23729;DHT22;12045;60.214;24.724;2022-07-29T00:42:51;12.50;99.90
23729;DHT22;12045;60.214;24.724;2022-07-29T00:45:19;12.50;99.90
23729;DHT22;12045;60.214;24.724;2022-07-29T00:47:47;12.50;99.90
23729;DHT22;12045;60.214;24.724;2022-07-29T00:50:14;12.50;99.90
23729;DHT22;12045;60.214;24.724;2022-07-29T00:52:45;12.50;99.90
23729;DHT22;12045;60.214;24.724;2022-07-29T00:55:15;12.50;99.90
23729;DHT22;12045;60.214;24.724;2022-07-29T00:57:43;12.60;99.90
23729;DHT22;12045;60.214;24.724;2022-07-29T01:00:20;12.50;99.90
23729;DHT22;12045;60.214;24.724;2022-07-29T01:02:48;12.50;99.90
23729;DHT22;12045;60.214;24.724;2022-07-29T01:05:21;12.50;99.90
23729;DHT22;12045;60.214;24.724;2022-07-29T01:07:52;12.50;99.90
23729;DHT22;12045;60.214;24.724;2022-07-29T01:10:20;12.60;99.90
23729;DHT22;12045;60.214;24.724;2022-07-29T01:12:50;12.50;99.90
23729;DHT22;12045;60.214;24.724;2022-07-29T01:15:18;12.50;99.90
23729;DHT22;12045;60.214;24.724;2022-07-29T01:18:04;12.50;99.90
23729;DHT22;12045;60.214;24.724;2022-07-29T01:31:22;12.40;99.90
23729;DHT22;12045;60.214;24.724;2022-07-29T01:34:00;12.40;99.90
23729;DHT22;12045;60.214;24.724;2022-07-29T01:36:45;12.40;99.90
23729;DHT22;12045;60.214;24.724;2022-07-29T01:39:23;12.30;99.90
23729;DHT22;12045;60.214;24.724;2022-07-29T01:42:05;12.30;99.90
23729;DHT22;12045;60.214;24.724;2022-07-29T01:44:37;12.30;99.90
23729;DHT22;12045;60.214;24.724;2022-07-29T01:47:17;12.30;99.90
23729;DHT22;12045;60.214;24.724;2022-07-29T01:49:50;12.30;99.90
23729;DHT22;12045;60.214;24.724;2022-07-29T01:52:28;12.40;99.90
23729;DHT22;12045;60.214;24.724;2022-07-29T01:55:03;12.40;99.90
23729;DHT22;12045;60.214;24.724;2022-07-29T01:57:33;12.40;99.90
23729;DHT22;12045;60.214;24.724;2022-07-29T02:00:04;12.50;99.90
23729;DHT22;12045;60.214;24.724;2022-07-29T02:02:33;12.40;99.90
23729;DHT22;12045;60.214;24.724;2022-07-29T02:05:03;12.40;99.90
23729;DHT22;12045;60.214;24.724;2022-07-29T02:07:33;12.40;99.90
23729;DHT22;12045;60.214;24.724;2022-07-29T02:10:03;12.50;99.90
23729;DHT22;12045;60.214;24.724;2022-07-29T02:12:33;12.50;99.90
23729;DHT22;12045;60.214;24.724;2022-07-29T02:15:04;12.50;99.90
23729;DHT22;12045;60.214;24.724;2022-07-29T02:17:45;12.50;99.90
23729;DHT22;12045;60.214;24.724;2022-07-29T02:20:16;12.50;99.90
23729;DHT22;12045;60.214;24.724;2022-07-29T02:22:44;12.50;99.90
23729;DHT22;12045;60.214;24.724;2022-07-29T02:25:13;12.60;99.90
23729;DHT22;12045;60.214;24.724;2022-07-29T02:27:44;12.60;99.90
23729;DHT22;12045;60.214;24.724;2022-07-29T02:32:43;12.70;99.90
23729;DHT22;12045;60.214;24.724;2022-07-29T02:35:14;12.80;99.90
23729;DHT22;12045;60.214;24.724;2022-07-29T02:40:16;12.90;99.90
23729;DHT22;12045;60.214;24.724;2022-07-29T02:42:44;12.90;99.90
23729;DHT22;12045;60.214;24.724;2022-07-29T02:47:49;13.00;99.90
23729;DHT22;12045;60.214;24.724;2022-07-29T02:50:23;13.10;99.90
23729;DHT22;12045;60.214;24.724;2022-07-29T02:53:09;13.00;99.90
23729;DHT22;12045;60.214;24.724;2022-07-29T02:55:43;13.10;99.90
23729;DHT22;12045;60.214;24.724;2022-07-29T03:00:51;13.20;99.90
23729;DHT22;12045;60.214;24.724;2022-07-29T03:03:20;13.20;99.90
23729;DHT22;12045;60.214;24.724;2022-07-29T03:05:48;13.20;99.90
23729;DHT22;12045;60.214;24.724;2022-07-29T03:11:12;13.30;99.90
23729;DHT22;12045;60.214;24.724;2022-07-29T03:13:41;13.30;99.90
23729;DHT22;12045;60.214;24.724;2022-07-29T03:16:09;13.40;99.90
23729;DHT22;12045;60.214;24.724;2022-07-29T03:21:23;13.50;99.90
23729;DHT22;12045;60.214;24.724;2022-07-29T03:23:53;13.50;99.90
23729;DHT22;12045;60.214;24.724;2022-07-29T03:26:20;13.50;99.90
23729;DHT22;12045;60.214;24.724;2022-07-29T03:28:48;13.60;99.90
23729;DHT22;12045;60.214;24.724;2022-07-29T03:31:15;13.60;99.90
23729;DHT22;12045;60.214;24.724;2022-07-29T03:33:43;13.60;99.90
23729;DHT22;12045;60.214;24.724;2022-07-29T03:36:11;13.60;99.90
23729;DHT22;12045;60.214;24.724;2022-07-29T03:38:40;13.70;99.90
23729;DHT22;12045;60.214;24.724;2022-07-29T03:41:10;13.70;99.90
23729;DHT22;12045;60.214;24.724;2022-07-29T03:43:41;13.70;99.90
23729;DHT22;12045;60.214;24.724;2022-07-29T03:46:16;13.80;99.90
23729;DHT22;12045;60.214;24.724;2022-07-29T03:48:48;13.70;99.90
23729;DHT22;12045;60.214;24.724;2022-07-29T03:51:18;13.70;99.90
23729;DHT22;12045;60.214;24.724;2022-07-29T03:54:00;13.70;99.90
23729;DHT22;12045;60.214;24.724;2022-07-29T03:56:39;13.80;99.90
23729;DHT22;12045;60.214;24.724;2022-07-29T03:59:07;13.90;99.90
23729;DHT22;12045;60.214;24.724;2022-07-29T04:01:35;13.90;99.90
23729;DHT22;12045;60.214;24.724;2022-07-29T04:04:04;14.00;99.90
23729;DHT22;12045;60.214;24.724;2022-07-29T04:06:43;14.00;99.90
23729;DHT22;12045;60.214;24.724;2022-07-29T04:09:12;14.10;99.90
23729;DHT22;12045;60.214;24.724;2022-07-29T04:11:40;14.10;99.90
23729;DHT22;12045;60.214;24.724;2022-07-29T04:14:28;14.20;99.90
23729;DHT22;12045;60.214;24.724;2022-07-29T04:17:01;14.20;99.90
23729;DHT22;12045;60.214;24.724;2022-07-29T04:19:32;14.20;99.90
23729;DHT22;12045;60.214;24.724;2022-07-29T04:22:00;14.20;99.90
23729;DHT22;12045;60.214;24.724;2022-07-29T04:24:28;14.30;99.90
23729;DHT22;12045;60.214;24.724;2022-07-29T04:26:56;14.30;99.90
23729;DHT22;12045;60.214;24.724;2022-07-29T04:29:23;14.30;99.90
23729;DHT22;12045;60.214;24.724;2022-07-29T04:31:52;14.40;99.90
23729;DHT22;12045;60.214;24.724;2022-07-29T04:34:23;14.50;99.90
23729;DHT22;12045;60.214;24.724;2022-07-29T04:36:55;14.40;99.90
23729;DHT22;12045;60.214;24.724;2022-07-29T04:39:27;14.40;99.90
23729;DHT22;12045;60.214;24.724;2022-07-29T04:41:56;14.40;99.90
23729;DHT22;12045;60.214;24.724;2022-07-29T04:44:25;14.50;99.90
23729;DHT22;12045;60.214;24.724;2022-07-29T04:46:56;14.50;99.90
23729;DHT22;12045;60.214;24.724;2022-07-29T04:49:27;14.50;99.90
23729;DHT22;12045;60.214;24.724;2022-07-29T04:51:54;14.30;99.90
23729;DHT22;12045;60.214;24.724;2022-07-29T04:54:22;14.30;99.90
23729;DHT22;12045;60.214;24.724;2022-07-29T04:56:52;14.30;99.90
23729;DHT22;12045;60.214;24.724;2022-07-29T04:59:19;14.40;99.90
23729;DHT22;12045;60.214;24.724;2022-07-29T05:01:47;14.50;99.90
23729;DHT22;12045;60.214;24.724;2022-07-29T05:04:15;14.50;99.90
23729;DHT22;12045;60.214;24.724;2022-07-29T05:06:43;14.50;99.90
23729;DHT22;12045;60.214;24.724;2022-07-29T05:09:13;14.50;99.90
23729;DHT22;12045;60.214;24.724;2022-07-29T05:11:40;14.50;99.90
23729;DHT22;12045;60.214;24.724;2022-07-29T05:14:08;14.50;99.90
23729;DHT22;12045;60.214;24.724;2022-07-29T05:16:35;14.50;99.90
23729;DHT22;12045;60.214;24.724;2022-07-29T05:19:03;15.30;99.90
23729;DHT22;12045;60.214;24.724;2022-07-29T05:21:31;14.60;99.90
23729;DHT22;12045;60.214;24.724;2022-07-29T05:24:00;14.60;99.90
23729;DHT22;12045;60.214;24.724;2022-07-29T05:26:28;14.60;99.90
23729;DHT22;12045;60.214;24.724;2022-07-29T05:28:56;14.50;99.90
23729;DHT22;12045;60.214;24.724;2022-07-29T05:34:10;14.50;99.90
23729;DHT22;12045;60.214;24.724;2022-07-29T05:36:39;14.50;99.90
23729;DHT22;12045;60.214;24.724;2022-07-29T05:39:08;14.50;99.90
23729;DHT22;12045;60.214;24.724;2022-07-29T05:41:37;14.70;99.90
23729;DHT22;12045;60.214;24.724;2022-07-29T05:44:04;14.70;99.90
23729;DHT22;12045;60.214;24.724;2022-07-29T05:46:34;14.80;99.90
23729;DHT22;12045;60.214;24.724;2022-07-29T05:49:16;14.90;99.90
23729;DHT22;12045;60.214;24.724;2022-07-29T05:51:53;14.90;99.90
23729;DHT22;12045;60.214;24.724;2022-07-29T05:54:20;14.90;99.90
23729;DHT22;12045;60.214;24.724;2022-07-29T05:56:48;15.00;99.90
23729;DHT22;12045;60.214;24.724;2022-07-29T05:59:16;15.00;99.90
23729;DHT22;12045;60.214;24.724;2022-07-29T06:01:44;15.00;99.90
23729;DHT22;12045;60.214;24.724;2022-07-29T06:06:48;15.20;99.90
23729;DHT22;12045;60.214;24.724;2022-07-29T06:09:17;15.20;99.90
23729;DHT22;12045;60.214;24.724;2022-07-29T06:11:45;15.10;99.90
23729;DHT22;12045;60.214;24.724;2022-07-29T06:14:13;15.10;99.90
23729;DHT22;12045;60.214;24.724;2022-07-29T06:16:41;15.00;99.90
23729;DHT22;12045;60.214;24.724;2022-07-29T06:19:09;15.00;99.90
23729;DHT22;12045;60.214;24.724;2022-07-29T06:21:43;15.10;99.90
23729;DHT22;12045;60.214;24.724;2022-07-29T06:24:12;15.20;99.90
23729;DHT22;12045;60.214;24.724;2022-07-29T06:26:41;15.30;99.90
23729;DHT22;12045;60.214;24.724;2022-07-29T06:29:10;15.40;99.90
23729;DHT22;12045;60.214;24.724;2022-07-29T06:31:41;15.60;99.90
23729;DHT22;12045;60.214;24.724;2022-07-29T06:36:44;16.10;99.90
23729;DHT22;12045;60.214;24.724;2022-07-29T06:39:12;16.20;99.90
23729;DHT22;12045;60.214;24.724;2022-07-29T06:41:40;16.30;99.90
23729;DHT22;12045;60.214;24.724;2022-07-29T06:44:08;16.50;99.90
23729;DHT22;12045;60.214;24.724;2022-07-29T06:46:36;16.70;99.90
23729;DHT22;12045;60.214;24.724;2022-07-29T06:49:04;16.80;99.90
23729;DHT22;12045;60.214;24.724;2022-07-29T06:57:18;16.30;99.90
23729;DHT22;12045;60.214;24.724;2022-07-29T06:59:46;16.40;99.90
23729;DHT22;12045;60.214;24.724;2022-07-29T07:05:40;16.80;99.90
23729;DHT22;12045;60.214;24.724;2022-07-29T07:08:08;17.10;99.90
23729;DHT22;12045;60.214;24.724;2022-07-29T07:10:35;17.30;99.90
23729;DHT22;12045;60.214;24.724;2022-07-29T07:13:04;17.40;99.90
23729;DHT22;12045;60.214;24.724;2022-07-29T07:15:32;17.60;99.90
23729;DHT22;12045;60.214;24.724;2022-07-29T07:20:58;17.20;99.90
23729;DHT22;12045;60.214;24.724;2022-07-29T07:23:29;17.10;99.90
23729;DHT22;12045;60.214;24.724;2022-07-29T07:25:57;17.10;99.90
23729;DHT22;12045;60.214;24.724;2022-07-29T07:28:25;17.20;99.90
23729;DHT22;12045;60.214;24.724;2022-07-29T07:30:54;17.20;99.90
23729;DHT22;12045;60.214;24.724;2022-07-29T07:36:35;17.20;99.90
23729;DHT22;12045;60.214;24.724;2022-07-29T07:39:03;17.30;99.90
23729;DHT22;12045;60.214;24.724;2022-07-29T07:41:32;17.50;99.90
23729;DHT22;12045;60.214;24.724;2022-07-29T07:44:09;17.60;99.90
23729;DHT22;12045;60.214;24.724;2022-07-29T07:46:42;17.70;99.90
23729;DHT22;12045;60.214;24.724;2022-07-29T07:52:07;17.70;99.90
23729;DHT22;12045;60.214;24.724;2022-07-29T07:54:35;17.70;99.90
23729;DHT22;12045;60.214;24.724;2022-07-29T07:57:07;17.80;99.90
23729;DHT22;12045;60.214;24.724;2022-07-29T07:59:51;18.00;99.90
23729;DHT22;12045;60.214;24.724;2022-07-29T08:02:19;18.10;99.90
23729;DHT22;12045;60.214;24.724;2022-07-29T08:07:27;18.50;99.90
23729;DHT22;12045;60.214;24.724;2022-07-29T08:09:54;18.30;99.90
23729;DHT22;12045;60.214;24.724;2022-07-29T08:12:23;18.30;99.90
23729;DHT22;12045;60.214;24.724;2022-07-29T08:14:54;18.20;99.90
23729;DHT22;12045;60.214;24.724;2022-07-29T08:17:22;18.20;99.90
23729;DHT22;12045;60.214;24.724;2022-07-29T08:22:49;18.10;99.90
23729;DHT22;12045;60.214;24.724;2022-07-29T08:25:18;17.90;99.90
23729;DHT22;12045;60.214;24.724;2022-07-29T08:27:48;17.70;99.90
23729;DHT22;12045;60.214;24.724;2022-07-29T08:30:15;17.90;99.90
23729;DHT22;12045;60.214;24.724;2022-07-29T08:32:43;17.90;99.90
23729;DHT22;12045;60.214;24.724;2022-07-29T08:35:22;18.20;99.90
23729;DHT22;12045;60.214;24.724;2022-07-29T08:37:50;18.40;99.90
23729;DHT22;12045;60.214;24.724;2022-07-29T08:40:20;18.60;99.90
23729;DHT22;12045;60.214;24.724;2022-07-29T08:43:08;18.50;99.90
23729;DHT22;12045;60.214;24.724;2022-07-29T08:45:47;18.40;99.90
23729;DHT22;12045;60.214;24.724;2022-07-29T08:48:23;18.30;99.90
23729;DHT22;12045;60.214;24.724;2022-07-29T08:50:56;18.30;99.90
23729;DHT22;12045;60.214;24.724;2022-07-29T08:53:28;18.30;99.90
23729;DHT22;12045;60.214;24.724;2022-07-29T08:55:57;18.20;99.90
23729;DHT22;12045;60.214;24.724;2022-07-29T09:01:02;17.90;99.90
23729;DHT22;12045;60.214;24.724;2022-07-29T09:03:35;17.90;99.90
23729;DHT22;12045;60.214;24.724;2022-07-29T09:08:34;18.00;99.90
23729;DHT22;12045;60.214;24.724;2022-07-29T09:11:05;17.90;99.90
23729;DHT22;12045;60.214;24.724;2022-07-29T09:16:13;17.70;99.90
23729;DHT22;12045;60.214;24.724;2022-07-29T09:19:02;17.80;99.90
23729;DHT22;12045;60.214;24.724;2022-07-29T09:21:46;17.70;99.90
23729;DHT22;12045;60.214;24.724;2022-07-29T09:27:02;17.80;99.90
23729;DHT22;12045;60.214;24.724;2022-07-29T09:29:30;17.80;99.90
23729;DHT22;12045;60.214;24.724;2022-07-29T09:32:06;17.80;99.90
23729;DHT22;12045;60.214;24.724;2022-07-29T09:34:35;17.90;99.90
23729;DHT22;12045;60.214;24.724;2022-07-29T09:37:05;17.80;99.90
23729;DHT22;12045;60.214;24.724;2022-07-29T09:39:35;17.80;99.90
23729;DHT22;12045;60.214;24.724;2022-07-29T09:42:05;17.90;99.90
23729;DHT22;12045;60.214;24.724;2022-07-29T09:44:47;18.00;99.90
23729;DHT22;12045;60.214;24.724;2022-07-29T09:47:20;18.10;99.90
23729;DHT22;12045;60.214;24.724;2022-07-29T09:49:57;19.70;99.90
23729;DHT22;12045;60.214;24.724;2022-07-29T09:52:26;18.30;99.90
23729;DHT22;12045;60.214;24.724;2022-07-29T09:55:08;18.40;99.90
23729;DHT22;12045;60.214;24.724;2022-07-29T10:00:57;18.20;99.90
23729;DHT22;12045;60.214;24.724;2022-07-29T10:03:25;18.20;99.90
23729;DHT22;12045;60.214;24.724;2022-07-29T10:06:10;18.30;99.90
23729;DHT22;12045;60.214;24.724;2022-07-29T10:08:38;18.60;99.90
23729;DHT22;12045;60.214;24.724;2022-07-29T10:13:51;18.70;99.90
23729;DHT22;12045;60.214;24.724;2022-07-29T10:16:37;18.50;99.90
23729;DHT22;12045;60.214;24.724;2022-07-29T10:19:05;18.40;99.90
23729;DHT22;12045;60.214;24.724;2022-07-29T10:21:33;18.30;99.90
23729;DHT22;12045;60.214;24.724;2022-07-29T10:24:06;18.30;99.90
23729;DHT22;12045;60.214;24.724;2022-07-29T10:26:42;18.20;99.90
23729;DHT22;12045;60.214;24.724;2022-07-29T10:29:10;18.30;99.90
23729;DHT22;12045;60.214;24.724;2022-07-29T10:32:22;18.40;99.90
23729;DHT22;12045;60.214;24.724;2022-07-29T10:43:46;19.40;99.90
23729;DHT22;12045;60.214;24.724;2022-07-29T10:46:18;19.30;99.90
23729;DHT22;12045;60.214;24.724;2022-07-29T10:49:19;19.40;99.90
23729;DHT22;12045;60.214;24.724;2022-07-29T10:59:52;20.10;99.90
23729;DHT22;12045;60.214;24.724;2022-07-29T11:02:46;20.10;99.90
23729;DHT22;12045;60.214;24.724;2022-07-29T11:05:19;19.60;99.90
23729;DHT22;12045;60.214;24.724;2022-07-29T11:11:31;19.20;99.90
23729;DHT22;12045;60.214;24.724;2022-07-29T11:14:00;19.20;99.90
23729;DHT22;12045;60.214;24.724;2022-07-29T11:22:32;19.00;99.90
23729;DHT22;12045;60.214;24.724;2022-07-29T11:25:17;19.10;99.90
23729;DHT22;12045;60.214;24.724;2022-07-29T11:28:13;19.20;99.90
23729;DHT22;12045;60.214;24.724;2022-07-29T11:30:52;19.30;99.90
23729;DHT22;12045;60.214;24.724;2022-07-29T11:36:11;20.10;99.90
23729;DHT22;12045;60.214;24.724;2022-07-29T11:38:44;20.20;99.90
23729;DHT22;12045;60.214;24.724;2022-07-29T11:43:54;19.70;99.90
23729;DHT22;12045;60.214;24.724;2022-07-29T11:46:44;19.70;99.90
23729;DHT22;12045;60.214;24.724;2022-07-29T11:49:26;19.60;99.90
23729;DHT22;12045;60.214;24.724;2022-07-29T11:52:07;19.90;99.90
23729;DHT22;12045;60.214;24.724;2022-07-29T11:54:42;20.40;99.90
23729;DHT22;12045;60.214;24.724;2022-07-29T11:57:29;20.60;99.90
23729;DHT22;12045;60.214;24.724;2022-07-29T12:00:06;21.00;99.90
23729;DHT22;12045;60.214;24.724;2022-07-29T12:02:44;21.30;99.90
23729;DHT22;12045;60.214;24.724;2022-07-29T12:05:21;21.20;99.90
23729;DHT22;12045;60.214;24.724;2022-07-29T12:08:07;21.00;99.90
23729;DHT22;12045;60.214;24.724;2022-07-29T12:10:49;21.10;99.90
23729;DHT22;12045;60.214;24.724;2022-07-29T12:13:21;20.90;99.90
23729;DHT22;12045;60.214;24.724;2022-07-29T12:16:05;20.60;99.90
23729;DHT22;12045;60.214;24.724;2022-07-29T12:18:55;20.40;99.90
23729;DHT22;12045;60.214;24.724;2022-07-29T12:27:17;19.80;99.90
23729;DHT22;12045;60.214;24.724;2022-07-29T12:30:01;19.60;99.90
23729;DHT22;12045;60.214;24.724;2022-07-29T12:35:07;19.80;99.90
23729;DHT22;12045;60.214;24.724;2022-07-29T12:37:38;19.90;99.90
23729;DHT22;12045;60.214;24.724;2022-07-29T12:40:20;19.90;99.90
23729;DHT22;12045;60.214;24.724;2022-07-29T12:43:14;20.00;99.90
23729;DHT22;12045;60.214;24.724;2022-07-29T12:45:44;19.90;99.90
23729;DHT22;12045;60.214;24.724;2022-07-29T12:48:17;19.80;99.90
23729;DHT22;12045;60.214;24.724;2022-07-29T12:50:53;20.10;99.90
23729;DHT22;12045;60.214;24.724;2022-07-29T12:53:37;20.30;99.90
23729;DHT22;12045;60.214;24.724;2022-07-29T12:56:06;20.40;99.90
23729;DHT22;12045;60.214;24.724;2022-07-29T13:01:39;20.20;99.90
23729;DHT22;12045;60.214;24.724;2022-07-29T13:04:27;20.20;99.90
23729;DHT22;12045;60.214;24.724;2022-07-29T13:07:03;20.60;99.90
23729;DHT22;12045;60.214;24.724;2022-07-29T13:09:50;21.30;99.90
23729;DHT22;12045;60.214;24.724;2022-07-29T13:12:19;21.60;99.90
23729;DHT22;12045;60.214;24.724;2022-07-29T13:17:25;21.40;99.90
23729;DHT22;12045;60.214;24.724;2022-07-29T13:20:25;20.60;99.90
23729;DHT22;12045;60.214;24.724;2022-07-29T13:22:58;20.20;99.90
23729;DHT22;12045;60.214;24.724;2022-07-29T13:25:31;19.90;99.90
23729;DHT22;12045;60.214;24.724;2022-07-29T13:27:59;19.90;99.90
23729;DHT22;12045;60.214;24.724;2022-07-29T13:30:42;20.20;99.90
23729;DHT22;12045;60.214;24.724;2022-07-29T13:33:11;20.50;99.90
23729;DHT22;12045;60.214;24.724;2022-07-29T13:35:39;20.60;99.90
23729;DHT22;12045;60.214;24.724;2022-07-29T13:38:06;20.70;99.90
23729;DHT22;12045;60.214;24.724;2022-07-29T13:43:20;21.00;99.90
23729;DHT22;12045;60.214;24.724;2022-07-29T13:45:47;21.30;99.90
23729;DHT22;12045;60.214;24.724;2022-07-29T13:48:15;21.50;99.80
23729;DHT22;12045;60.214;24.724;2022-07-29T13:50:43;21.50;99.90
23729;DHT22;12045;60.214;24.724;2022-07-29T13:53:11;21.40;99.90
23729;DHT22;12045;60.214;24.724;2022-07-29T13:58:44;21.20;99.90
23729;DHT22;12045;60.214;24.724;2022-07-29T14:01:53;21.00;99.90
23729;DHT22;12045;60.214;24.724;2022-07-29T14:04:20;20.90;99.90
23729;DHT22;12045;60.214;24.724;2022-07-29T14:06:50;20.80;99.90
23729;DHT22;12045;60.214;24.724;2022-07-29T14:09:18;20.50;97.70
23729;DHT22;12045;60.214;24.724;2022-07-29T14:11:46;20.50;98.00
23729;DHT22;12045;60.214;24.724;2022-07-29T14:17:24;20.20;97.00
23729;DHT22;12045;60.214;24.724;2022-07-29T14:20:01;20.40;96.80
23729;DHT22;12045;60.214;24.724;2022-07-29T14:25:15;20.60;96.00
23729;DHT22;12045;60.214;24.724;2022-07-29T14:27:43;20.70;95.90
23729;DHT22;12045;60.214;24.724;2022-07-29T14:30:11;20.70;95.70
23729;DHT22;12045;60.214;24.724;2022-07-29T14:32:39;20.60;96.30
23729;DHT22;12045;60.214;24.724;2022-07-29T14:35:07;19.40;96.90
23729;DHT22;12045;60.214;24.724;2022-07-29T14:37:35;20.50;97.00
23729;DHT22;12045;60.214;24.724;2022-07-29T14:40:11;20.60;97.50
23729;DHT22;12045;60.214;24.724;2022-07-29T14:42:44;20.60;96.70
23729;DHT22;12045;60.214;24.724;2022-07-29T14:45:11;20.70;97.10
23729;DHT22;12045;60.214;24.724;2022-07-29T14:47:39;20.80;96.70
23729;DHT22;12045;60.214;24.724;2022-07-29T14:50:09;20.70;96.80
23729;DHT22;12045;60.214;24.724;2022-07-29T14:55:35;20.70;96.50
23729;DHT22;12045;60.214;24.724;2022-07-29T14:58:27;20.70;97.30
23729;DHT22;12045;60.214;24.724;2022-07-29T15:00:59;20.60;97.00
23729;DHT22;12045;60.214;24.724;2022-07-29T15:03:41;20.50;97.60
23729;DHT22;12045;60.214;24.724;2022-07-29T15:06:25;20.50;97.60
23729;DHT22;12045;60.214;24.724;2022-07-29T15:08:52;20.60;97.60
23729;DHT22;12045;60.214;24.724;2022-07-29T15:11:21;20.80;97.90
23729;DHT22;12045;60.214;24.724;2022-07-29T15:13:48;20.60;98.20
23729;DHT22;12045;60.214;24.724;2022-07-29T15:16:16;20.60;98.60
23729;DHT22;12045;60.214;24.724;2022-07-29T15:18:45;20.40;99.10
23729;DHT22;12045;60.214;24.724;2022-07-29T15:21:34;20.10;99.50
23729;DHT22;12045;60.214;24.724;2022-07-29T15:24:15;19.70;99.90
23729;DHT22;12045;60.214;24.724;2022-07-29T15:26:44;19.40;99.90
23729;DHT22;12045;60.214;24.724;2022-07-29T15:34:48;18.70;99.90
23729;DHT22;12045;60.214;24.724;2022-07-29T15:40:23;18.20;99.90
23729;DHT22;12045;60.214;24.724;2022-07-29T15:42:51;17.90;99.90
23729;DHT22;12045;60.214;24.724;2022-07-29T15:48:09;17.70;99.90
23729;DHT22;12045;60.214;24.724;2022-07-29T15:50:41;17.60;99.90
23729;DHT22;12045;60.214;24.724;2022-07-29T15:53:13;17.70;99.90
23729;DHT22;12045;60.214;24.724;2022-07-29T15:55:40;17.70;99.90
23729;DHT22;12045;60.214;24.724;2022-07-29T15:58:10;17.20;99.90
23729;DHT22;12045;60.214;24.724;2022-07-29T16:00:38;17.90;99.90
23729;DHT22;12045;60.214;24.724;2022-07-29T16:03:07;17.80;99.90
23729;DHT22;12045;60.214;24.724;2022-07-29T16:05:35;17.80;99.90
23729;DHT22;12045;60.214;24.724;2022-07-29T16:10:49;17.70;99.90
23729;DHT22;12045;60.214;24.724;2022-07-29T16:13:17;17.70;99.90
23729;DHT22;12045;60.214;24.724;2022-07-29T16:15:47;17.80;99.90
23729;DHT22;12045;60.214;24.724;2022-07-29T16:18:29;17.80;99.90
23729;DHT22;12045;60.214;24.724;2022-07-29T16:20:57;17.90;99.90
23729;DHT22;12045;60.214;24.724;2022-07-29T16:23:26;17.80;99.90
23729;DHT22;12045;60.214;24.724;2022-07-29T16:25:57;17.80;99.90
23729;DHT22;12045;60.214;24.724;2022-07-29T16:28:28;17.90;99.90
23729;DHT22;12045;60.214;24.724;2022-07-29T16:30:55;17.80;99.90
23729;DHT22;12045;60.214;24.724;2022-07-29T16:33:24;17.90;99.90
23729;DHT22;12045;60.214;24.724;2022-07-29T16:35:58;17.80;99.90
23729;DHT22;12045;60.214;24.724;2022-07-29T16:38:26;17.70;99.90
23729;DHT22;12045;60.214;24.724;2022-07-29T16:40:54;17.60;99.90
23729;DHT22;12045;60.214;24.724;2022-07-29T16:43:36;17.70;99.90
23729;DHT22;12045;60.214;24.724;2022-07-29T16:46:06;17.80;99.90
23729;DHT22;12045;60.214;24.724;2022-07-29T16:48:40;17.90;99.90
23729;DHT22;12045;60.214;24.724;2022-07-29T16:51:08;17.90;99.90
23729;DHT22;12045;60.214;24.724;2022-07-29T16:56:16;18.00;99.90
23729;DHT22;12045;60.214;24.724;2022-07-29T16:58:43;18.10;99.90
23729;DHT22;12045;60.214;24.724;2022-07-29T17:01:11;18.10;99.90
23729;DHT22;12045;60.214;24.724;2022-07-29T17:03:38;18.10;99.90
23729;DHT22;12045;60.214;24.724;2022-07-29T17:09:09;18.10;99.90
23729;DHT22;12045;60.214;24.724;2022-07-29T17:11:52;18.10;99.90
23729;DHT22;12045;60.214;24.724;2022-07-29T17:14:28;18.00;99.90
23729;DHT22;12045;60.214;24.724;2022-07-29T17:16:58;18.00;99.90
23729;DHT22;12045;60.214;24.724;2022-07-29T17:19:33;18.00;99.90
23729;DHT22;12045;60.214;24.724;2022-07-29T17:22:03;17.90;99.90
23729;DHT22;12045;60.214;24.724;2022-07-29T17:24:46;17.90;99.90
23729;DHT22;12045;60.214;24.724;2022-07-29T17:29:47;17.80;99.90
23729;DHT22;12045;60.214;24.724;2022-07-29T17:32:15;17.80;99.90
23729;DHT22;12045;60.214;24.724;2022-07-29T17:37:21;17.80;99.90
23729;DHT22;12045;60.214;24.724;2022-07-29T17:39:49;17.90;99.90
23729;DHT22;12045;60.214;24.724;2022-07-29T17:42:17;17.90;99.90
23729;DHT22;12045;60.214;24.724;2022-07-29T17:44:44;17.90;99.90
23729;DHT22;12045;60.214;24.724;2022-07-29T17:47:13;17.90;99.90
23729;DHT22;12045;60.214;24.724;2022-07-29T17:49:43;17.90;99.90
23729;DHT22;12045;60.214;24.724;2022-07-29T17:52:11;18.00;99.90
23729;DHT22;12045;60.214;24.724;2022-07-29T17:54:39;18.00;99.90
23729;DHT22;12045;60.214;24.724;2022-07-29T17:57:06;18.00;99.90
23729;DHT22;12045;60.214;24.724;2022-07-29T17:59:36;17.90;99.90
23729;DHT22;12045;60.214;24.724;2022-07-29T18:02:18;17.90;99.90
23729;DHT22;12045;60.214;24.724;2022-07-29T18:04:59;17.90;99.90
23729;DHT22;12045;60.214;24.724;2022-07-29T18:07:27;17.90;99.90
23729;DHT22;12045;60.214;24.724;2022-07-29T18:10:03;18.00;99.90
23729;DHT22;12045;60.214;24.724;2022-07-29T18:12:31;18.00;99.90
23729;DHT22;12045;60.214;24.724;2022-07-29T18:14:58;18.10;99.90
23729;DHT22;12045;60.214;24.724;2022-07-29T18:17:28;18.10;99.90
23729;DHT22;12045;60.214;24.724;2022-07-29T18:20:20;17.90;99.90
23729;DHT22;12045;60.214;24.724;2022-07-29T18:22:47;17.90;99.90
23729;DHT22;12045;60.214;24.724;2022-07-29T18:25:15;17.90;99.90